Time;durP1;ratioP1;P1;durP2;ratioP2;P2;SDS_P1;SDS_P2;PMS_P1;PMS_P2;Temp;Humidity;BMP_temperature;BMP_pressure;BME280_temperature;BME280_humidity;BME280_pressure;Samples;Min_cycle;Max_cycle;Signal;HPM_P1;HPM_P2
2021/05/24 00:01:12;;;;;;;7.23;1.23;;;;;;;7.98;100.00;96316.06;5038844;28;20252;-73
2021/05/24 00:03:39;;;;;;;2.70;1.10;;;;;;;8.02;100.00;96314.78;5039033;28;20224;-75
2021/05/24 00:06:05;;;;;;;2.40;1.20;;;;;;;7.99;100.00;96308.06;5038947;28;20216;-75
2021/05/24 00:08:31;;;;;;;2.00;1.20;;;;;;;7.97;100.00;96311.81;5039756;28;20208;-75
2021/05/24 00:10:57;;;;;;;4.27;1.30;;;;;;;7.99;100.00;96294.94;5039345;28;21242;-74
2021/05/24 00:13:24;;;;;;;1.60;1.30;;;;;;;8.00;100.00;96285.25;5039195;28;20312;-74
2021/05/24 00:15:52;;;;;;;3.30;1.33;;;;;;;7.88;100.00;96276.84;5038898;28;20205;-74
2021/05/24 00:18:18;;;;;;;7.00;1.70;;;;;;;7.90;100.00;96274.06;5039996;28;20205;-75
2021/05/24 00:20:49;;;;;;;2.57;1.40;;;;;;;7.82;100.00;96260.94;5038821;28;20560;-74
2021/05/24 00:23:15;;;;;;;2.37;1.60;;;;;;;7.95;100.00;96262.09;5038559;28;20213;-74
2021/05/24 00:25:41;;;;;;;1.90;1.40;;;;;;;7.92;100.00;96267.69;5037875;28;20205;-73
2021/05/24 00:28:12;;;;;;;6.23;1.60;;;;;;;7.99;100.00;96271.31;5039192;28;20212;-74
2021/05/24 00:30:38;;;;;;;1.90;1.30;;;;;;;8.01;100.00;96271.97;5039320;28;20204;-74
2021/05/24 00:33:05;;;;;;;4.70;1.60;;;;;;;7.91;100.00;96270.47;5039108;28;20217;-74
2021/05/24 00:35:32;;;;;;;1.60;1.50;;;;;;;7.89;100.00;96264.53;5038417;28;20205;-74
2021/05/24 00:37:59;;;;;;;1.47;1.30;;;;;;;7.83;100.00;96256.50;5038321;28;20216;-73
2021/05/24 00:40:25;;;;;;;2.40;1.40;;;;;;;7.76;100.00;96256.31;5038906;28;20581;-75
2021/05/24 00:42:51;;;;;;;2.20;1.33;;;;;;;7.66;100.00;96255.66;5039121;28;20236;-73
2021/05/24 00:45:17;;;;;;;2.80;1.73;;;;;;;7.70;100.00;96246.47;5038296;28;20310;-73
2021/05/24 00:47:44;;;;;;;3.10;1.43;;;;;;;7.53;100.00;96259.69;5038637;28;20212;-75
2021/05/24 00:50:11;;;;;;;4.83;1.13;;;;;;;7.48;100.00;96260.13;5039280;28;20209;-74
2021/05/24 00:52:37;;;;;;;4.13;1.40;;;;;;;7.52;100.00;96251.00;5038263;28;20229;-74
2021/05/24 00:55:07;;;;;;;2.77;1.30;;;;;;;7.59;100.00;96251.19;5039106;28;20211;-75
2021/05/24 00:57:33;;;;;;;3.97;1.60;;;;;;;7.62;100.00;96249.06;5038196;28;20670;-73
2021/05/24 00:59:59;;;;;;;3.87;1.40;;;;;;;7.68;100.00;96247.63;5038839;28;20226;-74
2021/05/24 01:02:26;;;;;;;6.23;1.40;;;;;;;7.67;100.00;96251.22;5038505;28;20224;-73
2021/05/24 01:04:54;;;;;;;2.37;1.30;;;;;;;7.61;100.00;96236.94;5038254;28;20221;-75
2021/05/24 01:07:20;;;;;;;2.23;1.57;;;;;;;7.60;100.00;96239.69;5037102;28;20212;-73
2021/05/24 01:09:46;;;;;;;1.70;1.33;;;;;;;7.55;100.00;96242.81;5038602;28;20786;-74
2021/05/24 01:12:14;;;;;;;1.30;1.20;;;;;;;7.44;100.00;96231.78;5037568;28;20263;-75
2021/05/24 01:14:40;;;;;;;1.93;1.40;;;;;;;7.44;100.00;96227.34;5037379;28;20204;-75
2021/05/24 01:17:06;;;;;;;2.07;1.50;;;;;;;7.34;100.00;96223.22;5038373;28;20996;-73
2021/05/24 01:19:32;;;;;;;3.83;1.60;;;;;;;7.37;100.00;96222.94;5037564;28;20205;-74
2021/05/24 01:21:59;;;;;;;2.73;1.50;;;;;;;7.36;100.00;96218.66;5037718;28;20225;-74
2021/05/24 01:24:25;;;;;;;2.30;1.70;;;;;;;7.28;100.00;96222.06;5037715;28;20278;-75
2021/05/24 01:26:52;;;;;;;4.17;1.77;;;;;;;7.11;100.00;96214.28;5037203;28;20623;-73
2021/05/24 01:29:19;;;;;;;2.17;1.70;;;;;;;7.17;100.00;96218.91;5037057;28;20205;-74
2021/05/24 01:31:46;;;;;;;5.10;1.60;;;;;;;7.13;100.00;96214.09;5037640;28;20702;-75
2021/05/24 01:34:12;;;;;;;2.47;1.43;;;;;;;7.22;100.00;96207.94;5037373;28;20208;-73
2021/05/24 01:36:39;;;;;;;5.23;1.83;;;;;;;7.28;100.00;96208.16;5036236;28;20251;-74
2021/05/24 01:39:07;;;;;;;2.77;1.93;;;;;;;7.31;100.00;96202.59;5036579;28;20243;-75
2021/05/24 01:41:34;;;;;;;3.07;2.13;;;;;;;7.34;100.00;96194.38;5038168;28;20309;-74
2021/05/24 01:44:00;;;;;;;2.43;1.80;;;;;;;7.36;100.00;96198.50;5036947;28;20225;-74
2021/05/24 01:46:26;;;;;;;2.57;1.70;;;;;;;7.33;100.00;96190.13;5037703;28;20263;-75
2021/05/24 01:48:52;;;;;;;2.27;1.87;;;;;;;7.32;100.00;96184.06;5038838;28;20197;-74
2021/05/24 01:51:18;;;;;;;5.20;1.70;;;;;;;7.27;100.00;96180.28;5037495;28;20736;-75
2021/05/24 01:53:44;;;;;;;3.77;2.30;;;;;;;7.25;100.00;96182.25;5037355;28;20197;-74
2021/05/24 01:56:11;;;;;;;2.87;2.13;;;;;;;7.20;100.00;96173.22;5036511;28;20232;-74
2021/05/24 01:58:37;;;;;;;5.30;1.73;;;;;;;7.07;100.00;96185.94;5037473;28;20197;-74
2021/05/24 02:01:05;;;;;;;3.63;2.03;;;;;;;7.10;100.00;96177.75;5036887;28;20215;-74
2021/05/24 02:03:32;;;;;;;2.93;2.30;;;;;;;7.11;100.00;96179.41;5037816;28;21491;-74
2021/05/24 02:06:00;;;;;;;4.30;2.10;;;;;;;7.17;100.00;96184.03;5036045;28;20752;-74
2021/05/24 02:08:26;;;;;;;3.30;2.43;;;;;;;7.16;100.00;96171.91;5037358;28;20224;-74
2021/05/24 02:10:52;;;;;;;4.77;2.70;;;;;;;7.24;100.00;96158.81;5037541;28;20201;-73
2021/05/24 02:13:19;;;;;;;6.23;2.50;;;;;;;7.25;100.00;96155.22;5037482;28;20241;-73
2021/05/24 02:15:45;;;;;;;3.53;2.50;;;;;;;7.24;100.00;96156.19;5035461;28;20273;-73
2021/05/24 02:18:11;;;;;;;5.37;2.60;;;;;;;7.05;100.00;96138.09;5036956;28;20209;-74
2021/05/24 02:20:37;;;;;;;3.77;2.23;;;;;;;7.12;100.00;96136.50;5034252;28;20247;-74
2021/05/24 02:23:06;;;;;;;5.90;2.00;;;;;;;7.14;100.00;96147.63;5038265;28;20233;-73
2021/05/24 02:25:32;;;;;;;4.03;2.07;;;;;;;7.12;100.00;96147.00;5036457;28;20239;-74
2021/05/24 02:27:58;;;;;;;4.70;2.50;;;;;;;7.13;100.00;96149.44;5040967;28;20197;-74
2021/05/24 02:30:26;;;;;;;3.07;2.73;;;;;;;7.09;100.00;96140.25;5042413;28;20813;-74
2021/05/24 02:32:52;;;;;;;4.67;2.97;;;;;;;7.07;100.00;96141.41;5042338;28;20311;-73
2021/05/24 02:35:21;;;;;;;4.90;2.87;;;;;;;7.11;100.00;96132.25;5040591;28;20936;-73
2021/05/24 02:37:47;;;;;;;5.10;2.90;;;;;;;7.11;100.00;96127.00;5041873;28;20200;-74
2021/05/24 02:40:15;;;;;;;3.47;2.60;;;;;;;6.91;100.00;96133.47;5041798;28;20239;-74
2021/05/24 02:42:42;;;;;;;3.70;2.80;;;;;;;7.03;100.00;96124.34;5041048;28;20221;-74
2021/05/24 02:45:10;;;;;;;8.00;2.83;;;;;;;7.00;100.00;96124.66;5039921;28;20225;-73
2021/05/24 02:47:37;;;;;;;3.53;2.50;;;;;;;7.04;100.00;96116.34;5039477;28;20205;-73
2021/05/24 02:50:04;;;;;;;9.13;3.10;;;;;;;6.91;100.00;96122.97;5041364;28;20209;-74
2021/05/24 02:52:30;;;;;;;3.57;2.80;;;;;;;6.97;100.00;96104.03;5041633;28;20225;-73
2021/05/24 02:54:56;;;;;;;5.73;2.50;;;;;;;6.91;100.00;96109.88;5040864;28;20201;-72
2021/05/24 02:57:22;;;;;;;4.87;3.20;;;;;;;6.98;100.00;96106.47;5039732;28;20209;-74
2021/05/24 02:59:48;;;;;;;6.07;2.90;;;;;;;7.03;100.00;96103.41;5042279;28;20223;-74
2021/05/24 03:02:16;;;;;;;5.23;3.00;;;;;;;7.11;100.00;96106.03;5040911;28;20244;-73
2021/05/24 03:04:43;;;;;;;3.80;2.70;;;;;;;7.11;100.00;96106.03;5041266;28;20244;-74
2021/05/24 03:07:09;;;;;;;5.03;3.20;;;;;;;7.10;100.00;96099.16;5041387;28;20208;-74
2021/05/24 03:09:35;;;;;;;5.33;2.73;;;;;;;7.09;100.00;96097.50;5041561;28;20205;-74
2021/05/24 03:12:02;;;;;;;4.17;2.70;;;;;;;7.21;100.00;96109.34;5040357;28;20629;-74
2021/05/24 03:14:29;;;;;;;6.03;2.80;;;;;;;7.24;100.00;96101.16;5040825;28;20240;-72
2021/05/24 03:16:55;;;;;;;4.20;2.77;;;;;;;7.29;100.00;96102.31;5040376;28;20197;-74
2021/05/24 03:19:21;;;;;;;4.93;2.53;;;;;;;7.34;100.00;96098.25;5041587;28;20208;-74
2021/05/24 03:21:48;;;;;;;3.33;2.43;;;;;;;7.33;100.00;96101.00;5041544;28;20248;-73
2021/05/24 03:24:14;;;;;;;7.43;2.57;;;;;;;7.35;100.00;96101.69;5040931;28;20229;-75
2021/05/24 03:26:40;;;;;;;6.10;2.67;;;;;;;7.29;100.00;96105.78;5039793;28;20201;-74
2021/05/24 03:29:06;;;;;;;5.83;2.60;;;;;;;7.26;100.00;96091.34;5041068;28;20588;-73
2021/05/24 03:31:32;;;;;;;5.47;2.30;;;;;;;7.23;100.00;96099.50;5040403;28;20228;-73
2021/05/24 03:33:58;;;;;;;4.70;2.40;;;;;;;7.22;100.00;96095.25;5041265;28;20754;-73
2021/05/24 03:36:24;;;;;;;5.40;2.80;;;;;;;7.19;100.00;96098.19;5039466;28;20267;-73
2021/05/24 03:38:51;;;;;;;3.60;2.53;;;;;;;7.20;100.00;96095.41;5039851;28;20694;-74
2021/05/24 03:41:17;;;;;;;8.37;2.73;;;;;;;7.20;100.00;96089.38;5040989;28;20224;-74
2021/05/24 03:43:44;;;;;;;4.33;2.43;;;;;;;7.22;100.00;96087.38;5041708;28;20681;-74
2021/05/24 03:46:10;;;;;;;4.80;2.73;;;;;;;7.19;100.00;96077.22;5039757;28;20234;-74
2021/05/24 03:48:37;;;;;;;4.23;2.63;;;;;;;7.16;100.00;96067.91;5041269;28;20216;-74
2021/05/24 03:51:03;;;;;;;4.17;3.00;;;;;;;7.14;100.00;96082.13;5040826;28;20221;-73
2021/05/24 03:53:29;;;;;;;6.50;2.60;;;;;;;7.05;100.00;96088.31;5039784;28;20209;-73
2021/05/24 03:55:56;;;;;;;4.67;2.50;;;;;;;7.12;100.00;96077.06;5039185;28;20622;-73
2021/05/24 03:58:22;;;;;;;3.30;2.33;;;;;;;7.19;100.00;96072.00;5040129;28;20263;-74
2021/05/24 04:00:48;;;;;;;4.63;2.57;;;;;;;7.16;100.00;96067.91;5039644;28;20929;-74
2021/05/24 04:03:14;;;;;;;3.37;2.40;;;;;;;7.06;100.00;96061.16;5039451;28;20285;-74
2021/05/24 04:05:42;;;;;;;3.60;2.80;;;;;;;7.15;100.00;96060.19;5040578;28;20336;-72
2021/05/24 04:08:09;;;;;;;5.83;2.50;;;;;;;7.15;100.00;96075.91;5039626;28;20201;-74
2021/05/24 04:10:38;;;;;;;3.80;2.60;;;;;;;7.14;100.00;96074.28;5039837;28;20425;-74
2021/05/24 04:13:05;;;;;;;5.10;2.90;;;;;;;7.19;100.00;96062.31;5039001;28;20233;-73
2021/05/24 04:15:32;;;;;;;5.50;2.93;;;;;;;7.24;100.00;96062.66;5039176;28;20216;-73
2021/05/24 04:18:00;;;;;;;3.23;2.40;;;;;;;7.25;100.00;96079.22;5040523;28;20328;-74
2021/05/24 04:20:26;;;;;;;5.13;3.10;;;;;;;7.26;100.00;96078.25;5039577;28;20242;-74
2021/05/24 04:22:53;;;;;;;9.10;3.10;;;;;;;7.26;100.00;96072.00;5039207;28;21197;-72
2021/05/24 04:25:20;;;;;;;3.00;2.40;;;;;;;7.14;100.00;96063.78;5039875;28;20323;-73
2021/05/24 04:27:46;;;;;;;3.13;2.13;;;;;;;7.27;100.00;96078.09;5039892;28;20201;-73
2021/05/24 04:30:15;;;;;;;3.57;2.90;;;;;;;7.27;100.00;96084.13;5039364;28;20201;-74
2021/05/24 04:32:41;;;;;;;5.90;3.17;;;;;;;7.29;100.00;96076.09;5039913;28;20225;-74
2021/05/24 04:35:09;;;;;;;7.80;3.73;;;;;;;7.26;100.00;96065.94;5038923;28;20571;-74
2021/05/24 04:37:35;;;;;;;7.33;3.50;;;;;;;7.44;100.00;96077.94;5039327;28;20675;-74
2021/05/24 04:40:01;;;;;;;6.23;3.30;;;;;;;7.50;100.00;96074.66;5039851;28;21071;-73
2021/05/24 04:42:27;;;;;;;5.73;3.17;;;;;;;7.57;100.00;96070.41;5039150;28;20229;-74
2021/05/24 04:44:53;;;;;;;5.63;3.70;;;;;;;7.62;100.00;96078.59;5038991;28;21185;-74
2021/05/24 04:47:20;;;;;;;8.23;3.90;;;;;;;7.62;100.00;96083.84;5039139;28;20219;-73
2021/05/24 04:49:49;;;;;;;7.90;3.20;;;;;;;7.67;100.00;96075.50;5039268;28;20644;-74
2021/05/24 04:52:15;;;;;;;5.17;3.53;;;;;;;7.78;100.00;96060.28;5037903;28;20236;-74
2021/05/24 04:54:42;;;;;;;4.30;3.20;;;;;;;7.91;100.00;96060.59;5038931;28;20284;-74
2021/05/24 04:57:08;;;;;;;6.30;3.40;;;;;;;7.90;100.00;96070.28;5038455;28;20208;-74
2021/05/24 04:59:34;;;;;;;4.93;3.60;;;;;;;7.89;100.00;96080.91;5038018;28;20210;-73
2021/05/24 05:02:00;;;;;;;6.30;4.23;;;;;;;7.92;100.00;96072.72;5038895;28;20221;-74
2021/05/24 05:04:27;;;;;;;8.83;4.50;;;;;;;8.05;100.00;96073.84;5039196;28;20234;-74
2021/05/24 05:06:55;;;;;;;5.67;4.17;;;;;;;8.05;100.00;96059.91;5037894;28;20197;-74
2021/05/24 05:09:21;;;;;;;6.93;4.40;;;;;;;8.12;100.00;96053.00;5039160;28;20209;-74
2021/05/24 05:11:47;;;;;;;3.67;3.20;;;;;;;8.30;100.00;96051.03;5038414;28;20267;-75
2021/05/24 05:14:13;;;;;;;8.10;4.13;;;;;;;8.40;100.00;96073.53;5037689;28;20347;-73
2021/05/24 05:16:39;;;;;;;8.07;4.40;;;;;;;8.50;100.00;96061.84;5036643;28;20706;-73
2021/05/24 05:19:05;;;;;;;6.07;4.00;;;;;;;8.55;100.00;96072.66;5037972;28;20205;-72
2021/05/24 05:21:32;;;;;;;6.77;4.33;;;;;;;8.54;100.00;96054.41;5037031;28;20741;-72
2021/05/24 05:23:58;;;;;;;5.73;4.07;;;;;;;8.63;100.00;96048.97;5036760;28;20205;-72
2021/05/24 05:26:24;;;;;;;9.17;4.90;;;;;;;8.52;100.00;96062.47;5037796;28;20308;-73
2021/05/24 05:28:50;;;;;;;5.73;4.27;;;;;;;8.46;100.00;96056.25;5037487;28;20293;-72
2021/05/24 05:31:16;;;;;;;6.67;4.90;;;;;;;8.47;100.00;96052.66;5038509;28;20649;-73
2021/05/24 05:33:42;;;;;;;8.70;5.00;;;;;;;8.48;100.00;96043.78;5037199;28;20267;-73
2021/05/24 05:36:08;;;;;;;11.43;4.67;;;;;;;8.54;100.00;96042.13;5036677;28;20278;-72
2021/05/24 05:38:35;;;;;;;9.53;4.47;;;;;;;8.61;100.00;96056.19;5036609;28;20209;-73
2021/05/24 05:41:03;;;;;;;7.47;4.70;;;;;;;8.73;100.00;96057.50;5037539;28;20623;-72
2021/05/24 05:43:28;;;;;;;7.47;4.70;;;;;;;8.82;100.00;96045.97;5038032;28;20292;-72
2021/05/24 05:45:54;;;;;;;8.93;4.80;;;;;;;8.90;100.00;96053.00;5037058;28;20702;-72
2021/05/24 05:48:20;;;;;;;10.60;4.50;;;;;;;9.00;100.00;96036.03;5037313;28;20215;-72
2021/05/24 05:50:47;;;;;;;7.50;4.57;;;;;;;9.12;100.00;96034.63;5038768;28;20252;-72
2021/05/24 05:53:13;;;;;;;7.80;4.50;;;;;;;9.21;100.00;96033.59;5037542;28;20229;-73
2021/05/24 05:55:40;;;;;;;6.70;4.20;;;;;;;9.25;100.00;96030.47;5036788;28;20201;-73
2021/05/24 05:58:07;;;;;;;10.33;4.50;;;;;;;9.27;100.00;96017.13;5037853;28;20678;-73
2021/05/24 06:00:33;;;;;;;4.17;3.73;;;;;;;9.33;100.00;96016.41;5036214;28;20206;-73
2021/05/24 06:02:59;;;;;;;7.63;4.10;;;;;;;9.35;100.00;96006.56;5036859;28;20302;-72
2021/05/24 06:05:25;;;;;;;6.00;4.07;;;;;;;9.34;100.00;96013.63;5037566;28;21037;-73
2021/05/24 06:07:51;;;;;;;6.03;3.93;;;;;;;9.50;100.00;96018.75;5037982;28;20266;-73
2021/05/24 06:10:18;;;;;;;6.40;3.50;;;;;;;9.54;100.00;96020.03;5037807;28;20588;-72
2021/05/24 06:12:47;;;;;;;6.40;3.73;;;;;;;9.81;100.00;96020.34;5017648;28;566273;-73
2021/05/24 06:15:16;;;;;;;4.47;3.63;;;;;;;9.92;100.00;96017.25;5036498;28;20228;-73
2021/05/24 06:17:42;;;;;;;6.13;3.43;;;;;;;10.14;100.00;96019.06;5038319;28;20193;-72
2021/05/24 06:20:09;;;;;;;6.77;3.73;;;;;;;10.26;100.00;96012.38;5038224;28;20939;-73
2021/05/24 06:22:35;;;;;;;5.60;3.37;;;;;;;10.24;100.00;96005.66;5038850;28;20217;-73
2021/05/24 06:25:02;;;;;;;5.60;3.13;;;;;;;10.41;100.00;96005.28;5037274;28;20217;-73
2021/05/24 06:27:27;;;;;;;6.83;3.70;;;;;;;10.30;100.00;96004.91;5038406;28;20209;-73
2021/05/24 06:29:54;;;;;;;5.27;3.60;;;;;;;10.27;100.00;96007.91;5038124;28;20545;-73
2021/05/24 06:32:20;;;;;;;5.17;3.70;;;;;;;10.37;100.00;95993.47;5036061;28;20276;-73
2021/05/24 06:34:46;;;;;;;7.47;3.53;;;;;;;10.42;100.00;96006.91;5037842;28;20212;-72
2021/05/24 06:37:12;;;;;;;4.90;3.67;;;;;;;10.48;100.00;95995.66;5036049;28;20208;-73
2021/05/24 06:39:38;;;;;;;4.97;3.83;;;;;;;10.51;100.00;96001.38;5037084;28;20667;-73
2021/05/24 06:42:05;;;;;;;8.17;3.70;;;;;;;10.46;100.00;96010.81;5037600;28;20227;-73
2021/05/24 06:44:31;;;;;;;5.30;3.20;;;;;;;10.51;100.00;96006.66;5037171;28;20585;-73
2021/05/24 06:46:58;;;;;;;4.57;3.03;;;;;;;10.63;100.00;96014.94;5036134;28;20822;-73
2021/05/24 06:49:24;;;;;;;4.90;3.50;;;;;;;10.60;100.00;96026.66;5037549;28;20205;-73
2021/05/24 06:51:50;;;;;;;4.93;3.63;;;;;;;10.74;100.00;96019.72;5037475;28;20724;-73
2021/05/24 06:54:17;;;;;;;7.90;3.33;;;;;;;10.94;100.00;96019.78;5036884;28;20686;-72
2021/05/24 06:56:43;;;;;;;5.30;3.30;;;;;;;10.98;100.00;96014.94;5036427;28;20212;-73
2021/05/24 06:59:09;;;;;;;4.53;3.43;;;;;;;10.92;100.00;96026.25;5036614;28;20217;-73
2021/05/24 07:01:35;;;;;;;4.97;3.47;;;;;;;11.05;100.00;96021.13;5036986;28;20282;-73
2021/05/24 07:04:03;;;;;;;8.70;3.60;;;;;;;11.07;100.00;96014.69;5037462;28;20205;-73
2021/05/24 07:06:29;;;;;;;6.17;3.50;;;;;;;11.21;100.00;96015.63;5037914;28;20209;-73
2021/05/24 07:08:55;;;;;;;8.10;3.17;;;;;;;11.27;100.00;96020.97;5037211;28;20197;-73
2021/05/24 07:11:21;;;;;;;9.03;3.60;;;;;;;11.15;100.00;96025.13;5037021;28;20232;-73
2021/05/24 07:13:47;;;;;;;4.30;3.07;;;;;;;11.24;100.00;96020.53;5040449;28;20300;-74
2021/05/24 07:16:13;;;;;;;5.63;3.40;;;;;;;11.37;100.00;96015.41;5040940;28;20205;-73
2021/05/24 07:18:39;;;;;;;4.70;3.43;;;;;;;11.33;100.00;96009.69;5040702;28;20709;-73
2021/05/24 07:21:06;;;;;;;6.80;3.27;;;;;;;11.55;100.00;96003.44;5041211;28;20292;-73
2021/05/24 07:23:32;;;;;;;4.63;2.43;;;;;;;11.53;100.00;96004.63;5042552;28;20205;-72
2021/05/24 07:25:59;;;;;;;3.87;2.70;;;;;;;11.46;100.00;95987.91;5040407;28;20221;-73
2021/05/24 07:28:25;;;;;;;2.42;2.20;;;;;;;11.48;100.00;95986.72;5039946;28;20274;-73
2021/05/24 07:30:51;;;;;;;3.57;2.53;;;;;;;11.73;100.00;95977.44;5039501;28;20675;-73
2021/05/24 07:33:17;;;;;;;4.05;2.28;;;;;;;11.78;100.00;95986.41;5040206;28;20233;-72
2021/05/24 07:35:43;;;;;;;3.73;2.50;;;;;;;11.91;100.00;95988.34;5040329;28;20201;-73
2021/05/24 07:38:10;;;;;;;5.53;2.70;;;;;;;11.85;98.78;95995.22;5040263;28;20223;-73
2021/05/24 07:40:36;;;;;;;4.27;2.20;;;;;;;11.94;100.00;95998.50;5041232;28;20205;-73
2021/05/24 07:43:02;;;;;;;4.60;2.47;;;;;;;11.97;100.00;95992.88;5040752;28;20583;-73
2021/05/24 07:45:28;;;;;;;4.73;2.63;;;;;;;12.11;100.00;96010.44;5039391;28;20229;-74
2021/05/24 07:47:54;;;;;;;3.03;2.30;;;;;;;12.18;100.00;96007.66;5040371;28;20213;-73
2021/05/24 07:50:20;;;;;;;2.75;2.20;;;;;;;12.15;100.00;96006.41;5039935;28;20997;-73
2021/05/24 07:52:46;;;;;;;5.03;2.47;;;;;;;12.10;99.43;95992.97;5039050;28;20733;-73
2021/05/24 07:55:13;;;;;;;2.75;2.00;;;;;;;12.24;96.94;96004.25;5038641;28;20212;-73
2021/05/24 07:57:42;;;;;;;2.97;2.25;;;;;;;12.12;100.00;96001.50;5040482;28;20202;-73
2021/05/24 08:00:10;;;;;;;3.10;2.43;;;;;;;12.07;99.37;96006.56;5039765;28;20205;-73
2021/05/24 08:02:39;;;;;;;5.57;2.38;;;;;;;12.12;97.03;95999.69;5039621;28;20235;-73
2021/05/24 08:05:08;;;;;;;3.20;2.50;;;;;;;12.05;99.94;96008.56;5039704;28;20217;-73
2021/05/24 08:07:35;;;;;;;4.35;2.40;;;;;;;12.08;100.00;96011.66;5040927;28;20198;-74
2021/05/24 08:10:01;;;;;;;4.23;2.20;;;;;;;12.15;96.71;96027.56;5039783;28;20212;-73
2021/05/24 08:12:28;;;;;;;5.75;2.30;;;;;;;11.86;98.52;96028.53;5039608;28;20237;-73
2021/05/24 08:14:54;;;;;;;3.25;2.15;;;;;;;11.89;100.00;96028.13;5039590;28;20205;-73
2021/05/24 08:17:20;;;;;;;4.30;2.88;;;;;;;11.89;99.12;96016.75;5038007;28;20223;-72
2021/05/24 08:19:46;;;;;;;3.65;2.55;;;;;;;12.02;100.00;96028.25;5039685;28;20243;-73
2021/05/24 08:22:12;;;;;;;4.47;2.83;;;;;;;12.05;100.00;96027.06;5040413;28;20772;-72
2021/05/24 08:24:38;;;;;;;4.30;3.00;;;;;;;12.11;98.62;96031.59;5038531;28;20228;-72
2021/05/24 08:27:04;;;;;;;3.85;2.67;;;;;;;12.13;95.63;96025.09;5038548;28;20209;-73
2021/05/24 08:29:31;;;;;;;3.60;2.80;;;;;;;12.13;97.15;96016.34;5039771;28;21137;-71
2021/05/24 08:31:57;;;;;;;10.10;3.17;;;;;;;12.25;97.27;95999.78;5039912;28;20229;-72
2021/05/24 08:34:23;;;;;;;6.25;2.83;;;;;;;12.10;97.58;95995.59;5039466;28;20207;-73
2021/05/24 08:36:49;;;;;;;4.88;2.65;;;;;;;12.08;98.24;95994.97;5038718;28;20606;-72
2021/05/24 08:39:16;;;;;;;6.63;2.83;;;;;;;12.08;99.87;95987.03;5039709;28;20205;-73
2021/05/24 08:41:42;;;;;;;5.95;3.00;;;;;;;12.08;100.00;95985.25;5037849;28;20444;-73
2021/05/24 08:44:09;;;;;;;4.88;2.78;;;;;;;12.04;100.00;95978.72;5039378;28;20649;-74
2021/05/24 08:46:38;;;;;;;5.13;2.67;;;;;;;12.28;99.47;95965.03;5034355;28;20201;-74
2021/05/24 08:49:05;;;;;;;5.03;2.53;;;;;;;12.42;98.18;95967.59;5037249;28;20263;-74
2021/05/24 08:51:31;;;;;;;5.05;3.00;;;;;;;12.61;96.54;95956.28;5038414;28;20224;-73
2021/05/24 08:53:57;;;;;;;3.53;2.47;;;;;;;12.71;93.29;95956.75;5038633;28;20668;-73
2021/05/24 08:56:23;;;;;;;5.70;2.33;;;;;;;12.82;92.28;95962.28;5037303;28;20197;-73
2021/05/24 08:58:49;;;;;;;4.07;2.00;;;;;;;13.00;90.36;95961.78;5038964;28;20201;-73
2021/05/24 09:01:15;;;;;;;2.58;2.03;;;;;;;13.01;86.95;95955.50;5039321;28;20205;-74
2021/05/24 09:03:47;;;;;;;3.47;2.10;;;;;;;13.15;90.01;95944.75;5039460;28;20197;-74
2021/05/24 09:06:13;;;;;;;3.47;2.60;;;;;;;13.30;92.41;95941.91;5036809;28;20228;-73
2021/05/24 09:08:40;;;;;;;3.63;2.45;;;;;;;13.20;92.46;95944.97;5038112;28;20212;-73
2021/05/24 09:11:24;;;;;;;4.32;2.05;;;;;;;13.33;92.98;95936.22;5038421;28;20263;-72
2021/05/24 09:13:51;;;;;;;3.28;1.98;;;;;;;13.40;93.16;95933.41;5038651;28;20201;-73
2021/05/24 09:16:25;;;;;;;4.50;1.90;;;;;;;13.49;91.21;95937.50;5036653;28;20251;-73
2021/05/24 09:19:11;;;;;;;2.80;1.63;;;;;;;13.63;88.50;95944.44;5037658;28;20200;-73
2021/05/24 09:21:37;;;;;;;4.07;1.77;;;;;;;13.75;85.10;95952.59;5037781;28;20221;-73
2021/05/24 09:24:27;;;;;;;5.15;2.15;;;;;;;13.90;81.56;95955.81;5037916;28;20197;-73
2021/05/24 09:26:53;;;;;;;3.28;1.95;;;;;;;14.03;82.20;95946.06;5036750;28;20329;-72
2021/05/24 09:29:23;;;;;;;4.72;2.10;;;;;;;14.22;81.76;95946.06;5037683;28;20998;-73
2021/05/24 09:32:15;;;;;;;4.38;2.35;;;;;;;14.34;80.08;95943.59;5038179;28;20228;-73
2021/05/24 09:34:44;;;;;;;2.75;2.00;;;;;;;14.02;79.21;95949.72;5037503;28;20625;-73
2021/05/24 09:37:11;;;;;;;2.65;2.17;;;;;;;14.04;80.27;95947.69;5036536;28;20205;-73
2021/05/24 09:39:38;;;;;;;3.28;2.00;;;;;;;14.27;84.68;95940.97;5037404;28;20201;-73
2021/05/24 09:42:08;;;;;;;3.53;2.00;;;;;;;14.37;78.87;95941.34;5038873;28;20718;-73
2021/05/24 09:44:41;;;;;;;4.90;1.92;;;;;;;14.38;78.80;95936.84;5038243;28;20229;-72
2021/05/24 09:47:07;;;;;;;2.63;1.90;;;;;;;14.41;80.47;95939.09;5036853;28;20201;-72
2021/05/24 09:49:35;;;;;;;2.55;2.00;;;;;;;14.40;79.53;95932.19;5037988;28;20201;-72
2021/05/24 09:52:03;;;;;;;3.53;1.90;;;;;;;14.48;78.46;95937.25;5037556;28;20221;-73
2021/05/24 09:54:30;;;;;;;3.05;2.17;;;;;;;14.35;78.19;95940.75;5037705;28;20199;-72
2021/05/24 09:56:59;;;;;;;4.93;2.10;;;;;;;14.46;79.54;95931.31;5036491;28;20201;-73
2021/05/24 09:59:26;;;;;;;3.47;2.30;;;;;;;14.42;77.76;95919.50;5038679;28;21214;-72
2021/05/24 10:01:55;;;;;;;5.38;2.33;;;;;;;14.24;78.69;95927.31;5037352;28;20225;-73
2021/05/24 10:04:23;;;;;;;3.08;1.90;;;;;;;14.26;83.40;95923.44;5037530;28;20208;-73
2021/05/24 10:06:50;;;;;;;3.70;2.10;;;;;;;14.13;76.49;95922.66;5038040;28;20594;-72
2021/05/24 10:09:18;;;;;;;2.95;1.85;;;;;;;14.19;77.80;95924.44;5037960;28;20205;-72
2021/05/24 10:11:46;;;;;;;3.28;2.00;;;;;;;13.95;77.98;95933.03;5037054;28;20719;-71
2021/05/24 10:14:13;;;;;;;3.42;1.92;;;;;;;14.03;80.80;95925.66;5038607;28;20291;-73
2021/05/24 10:16:43;;;;;;;2.40;2.00;;;;;;;13.93;79.57;95937.69;5037493;28;20292;-71
2021/05/24 10:19:12;;;;;;;3.88;2.10;;;;;;;14.12;80.16;95932.41;5037853;28;20208;-74
2021/05/24 10:21:38;;;;;;;3.20;1.70;;;;;;;14.21;79.43;95930.38;5037760;28;20603;-73
2021/05/24 10:24:05;;;;;;;3.03;2.15;;;;;;;14.35;79.56;95929.34;5038943;28;20286;-72
2021/05/24 10:26:32;;;;;;;3.90;2.20;;;;;;;14.38;79.09;95915.66;5036074;28;20221;-74
2021/05/24 10:29:01;;;;;;;2.85;1.77;;;;;;;14.44;79.48;95905.03;5037619;28;20343;-74
2021/05/24 10:31:29;;;;;;;3.25;1.90;;;;;;;14.69;76.72;95906.78;5034159;28;20240;-72
2021/05/24 10:34:02;;;;;;;4.05;1.90;;;;;;;14.68;77.07;95897.19;5033278;28;20217;-74
2021/05/24 10:36:30;;;;;;;2.88;1.70;;;;;;;14.87;76.15;95904.25;5033572;28;20996;-73
2021/05/24 10:39:16;;;;;;;2.20;1.80;;;;;;;15.03;76.27;95903.78;5033695;28;20233;-71
2021/05/24 10:41:49;;;;;;;3.13;2.20;;;;;;;15.00;73.92;95911.34;5037156;28;20216;-74
2021/05/24 10:44:16;;;;;;;6.00;4.20;;;;;;;15.22;74.54;95896.75;5037213;28;20206;-71
2021/05/24 10:46:42;;;;;;;6.05;3.78;;;;;;;14.92;77.04;95901.78;5037118;28;20275;-74
2021/05/24 10:49:24;;;;;;;4.18;2.83;;;;;;;15.09;77.95;95896.81;5041134;28;20213;-72
2021/05/24 10:52:04;;;;;;;3.53;2.05;;;;;;;15.40;75.67;95897.66;5040478;28;20278;-73
2021/05/24 10:54:42;;;;;;;2.75;1.83;;;;;;;15.54;75.97;95901.84;5041312;28;20201;-74
2021/05/24 10:57:19;;;;;;;1.70;1.45;;;;;;;15.54;72.51;95897.38;5041236;28;20208;-74
2021/05/24 10:59:58;;;;;;;2.25;1.70;;;;;;;15.37;74.58;95884.81;5039816;28;20201;-73
2021/05/24 11:02:29;;;;;;;3.85;2.58;;;;;;;15.32;76.30;95888.13;5041563;28;20221;-75
2021/05/24 11:04:58;;;;;;;3.47;1.90;;;;;;;15.41;78.62;95888.66;5040777;28;20236;-73
2021/05/24 11:07:26;;;;;;;3.42;2.20;;;;;;;15.27;72.96;95873.84;5040277;28;20952;-74
2021/05/24 11:09:53;;;;;;;2.30;1.50;;;;;;;15.17;75.23;95862.84;5040205;28;20718;-74
2021/05/24 11:12:29;;;;;;;3.10;1.55;;;;;;;15.34;73.43;95869.31;5040657;28;20710;-74
2021/05/24 11:15:07;;;;;;;2.15;1.60;;;;;;;15.06;75.93;95871.50;5040357;28;20254;-72
2021/05/24 11:18:06;;;;;;;3.10;1.70;;;;;;;14.98;77.68;95862.97;5040897;28;20957;-73
2021/05/24 11:20:35;;;;;;;2.10;1.83;;;;;;;15.02;76.60;95870.31;5040338;28;20233;-74
2021/05/24 11:23:12;;;;;;;3.63;1.80;;;;;;;15.09;77.13;95863.09;5040790;28;20232;-73
2021/05/24 11:25:51;;;;;;;4.57;2.00;;;;;;;15.25;75.52;95871.41;5040079;28;20221;-73
2021/05/24 11:28:19;;;;;;;2.88;2.10;;;;;;;15.36;73.64;95848.66;5040389;28;20251;-71
2021/05/24 11:30:45;;;;;;;2.95;1.60;;;;;;;15.26;74.43;95846.50;5041119;28;20201;-74
2021/05/24 11:33:40;;;;;;;2.55;1.90;;;;;;;15.62;74.10;95829.91;5040124;28;20318;-72